Time;durP1;ratioP1;P1;durP2;ratioP2;P2;SDS_P1;SDS_P2;PMS_P1;PMS_P2;Temp;Humidity;BMP_temperature;BMP_pressure;BME280_temperature;BME280_humidity;BME280_pressure;Samples;Min_cycle;Max_cycle;Signal;HPM_P1;HPM_P2
2022/01/19 00:00:50;;;;;;;59.65;19.85;;;4.00;99.90;;;;;;5079818;28;20086;-73
2022/01/19 00:03:16;;;;;;;63.55;20.58;;;4.10;99.90;;;;;;5077739;28;20078;-76
2022/01/19 00:05:42;;;;;;;61.90;21.05;;;4.10;99.90;;;;;;5085565;28;20040;-75
2022/01/19 00:08:08;;;;;;;62.53;20.65;;;4.10;99.90;;;;;;5077752;28;20092;-75
2022/01/19 00:10:34;;;;;;;64.30;20.73;;;4.10;99.90;;;;;;5080069;28;20173;-74
2022/01/19 00:13:00;;;;;;;61.70;20.20;;;4.10;99.90;;;;;;5077105;28;20048;-78
2022/01/19 00:15:27;;;;;;;57.10;19.80;;;4.20;99.90;;;;;;5060046;28;20087;-72
2022/01/19 00:17:57;;;;;;;53.30;17.70;;;4.20;99.90;;;;;;5079217;28;20396;-73
2022/01/19 00:20:24;;;;;;;62.20;21.67;;;4.20;99.90;;;;;;5077204;28;20078;-72
2022/01/19 00:22:50;;;;;;;50.95;19.30;;;4.20;99.90;;;;;;5080242;28;20559;-72
2022/01/19 00:25:17;;;;;;;54.42;19.83;;;4.30;99.90;;;;;;5085367;28;20088;-72
2022/01/19 00:27:43;;;;;;;57.15;18.67;;;4.20;99.90;;;;;;5077940;28;20398;-74
2022/01/19 00:30:09;;;;;;;59.75;19.23;;;4.20;99.90;;;;;;5077452;28;20614;-72
2022/01/19 00:32:35;;;;;;;54.58;18.92;;;4.20;99.90;;;;;;5084680;28;20079;-75
2022/01/19 00:35:05;;;;;;;55.63;20.70;;;4.30;99.90;;;;;;5083844;28;20055;-75
2022/01/19 00:37:32;;;;;;;52.90;18.80;;;4.30;99.90;;;;;;5093478;28;20056;-78
2022/01/19 00:39:57;;;;;;;66.43;21.30;;;4.20;99.90;;;;;;5078145;28;20426;-78
2022/01/19 00:42:23;;;;;;;67.90;21.55;;;4.40;99.90;;;;;;5076869;28;20040;-79
2022/01/19 00:44:49;;;;;;;61.25;19.30;;;4.30;99.90;;;;;;5077803;28;20080;-79
2022/01/19 00:47:16;;;;;;;58.92;18.73;;;4.30;99.90;;;;;;5078749;28;20040;-78
2022/01/19 00:49:42;;;;;;;50.90;18.85;;;4.30;99.90;;;;;;5077586;28;20044;-78
2022/01/19 00:52:09;;;;;;;49.75;18.95;;;4.30;99.90;;;;;;5087373;28;20457;-78
2022/01/19 00:54:36;;;;;;;55.70;19.05;;;4.20;99.90;;;;;;5088942;28;20194;-78
2022/01/19 00:57:02;;;;;;;52.40;18.45;;;4.30;99.90;;;;;;5043668;28;20094;-78
2022/01/19 00:59:27;;;;;;;48.47;17.45;;;4.20;99.90;;;;;;5080229;28;20056;-78
2022/01/19 01:01:53;;;;;;;45.83;17.10;;;4.20;99.90;;;;;;5064078;28;20119;-78
2022/01/19 01:04:19;;;;;;;54.42;18.27;;;4.20;99.90;;;;;;5071693;28;20563;-77
2022/01/19 01:06:45;;;;;;;47.65;16.83;;;4.20;99.90;;;;;;5072232;28;20040;-78
2022/01/19 01:09:10;;;;;;;48.22;17.83;;;4.30;99.90;;;;;;5081516;28;20043;-78
2022/01/19 01:11:46;;;;;;;45.22;16.65;;;4.20;99.90;;;;;;5085533;28;20044;-77
2022/01/19 01:16:58;;;;;;;45.63;14.95;;;4.10;99.90;;;;;;5082718;28;20049;-77
2022/01/19 01:19:25;;;;;;;45.83;15.07;;;4.00;99.90;;;;;;5081635;28;20400;-77
2022/01/19 01:21:50;;;;;;;43.65;14.88;;;4.00;99.90;;;;;;5081248;28;20036;-77
2022/01/19 01:24:16;;;;;;;38.03;13.57;;;3.80;99.90;;;;;;5080532;28;20054;-77
2022/01/19 01:26:42;;;;;;;44.10;14.77;;;3.80;99.90;;;;;;5081123;28;20063;-77
2022/01/19 01:29:08;;;;;;;46.15;16.73;;;3.70;99.90;;;;;;5079867;28;20048;-78
2022/01/19 01:31:33;;;;;;;37.00;13.48;;;3.60;99.90;;;;;;5084991;28;20082;-78
2022/01/19 01:33:59;;;;;;;40.70;14.02;;;3.70;99.90;;;;;;5080875;28;20052;-77
2022/01/19 01:36:25;;;;;;;36.70;14.13;;;3.80;99.90;;;;;;5081183;28;20032;-77
2022/01/19 01:38:51;;;;;;;38.60;14.15;;;3.60;99.90;;;;;;5081340;28;20087;-77
2022/01/19 01:41:16;;;;;;;40.67;15.32;;;3.50;99.90;;;;;;5062697;28;20100;-77
2022/01/19 01:43:43;;;;;;;34.88;15.13;;;3.50;99.90;;;;;;5080836;28;20040;-77
2022/01/19 01:46:17;;;;;;;42.00;13.55;;;3.40;99.90;;;;;;5095479;28;20132;-77
2022/01/19 01:48:46;;;;;;;41.42;13.25;;;3.50;99.90;;;;;;5081361;28;20075;-77
2022/01/19 01:53:59;;;;;;;33.28;12.35;;;3.40;99.90;;;;;;5080982;28;20048;-77
2022/01/19 01:56:25;;;;;;;36.10;12.55;;;3.40;99.90;;;;;;5082073;28;20044;-76
2022/01/19 01:58:51;;;;;;;34.92;13.45;;;3.40;99.90;;;;;;5081386;28;20104;-76
2022/01/19 02:01:17;;;;;;;34.47;12.52;;;3.30;99.90;;;;;;5079739;28;20052;-76
2022/01/19 02:03:44;;;;;;;33.90;13.48;;;3.20;99.90;;;;;;5081358;28;20062;-76
2022/01/19 02:08:51;;;;;;;29.20;11.00;;;3.10;99.90;;;;;;5079989;28;20076;-76
2022/01/19 02:24:10;;;;;;;33.30;11.55;;;3.00;99.90;;;;;;5080611;28;20087;-77
2022/01/19 02:30:07;;;;;;;39.55;14.95;;;2.80;99.90;;;;;;5080792;28;20463;-77
2022/01/19 02:40:29;;;;;;;34.42;13.95;;;2.80;99.90;;;;;;5078710;28;20439;-77
2022/01/19 02:43:07;;;;;;;51.75;17.00;;;3.00;99.90;;;;;;5091216;28;20059;-76
2022/01/19 02:51:08;;;;;;;39.63;14.80;;;2.80;99.90;;;;;;5081332;28;20084;-77
2022/01/19 02:53:35;;;;;;;40.40;15.00;;;2.80;99.90;;;;;;5079727;28;20272;-77
2022/01/19 02:56:07;;;;;;;37.97;14.32;;;3.10;99.90;;;;;;5112141;28;20047;-78
2022/01/19 02:58:37;;;;;;;50.25;15.70;;;2.80;99.90;;;;;;5095857;28;20067;-77
2022/01/19 03:09:18;;;;;;;46.90;15.80;;;2.40;99.90;;;;;;5058122;28;20090;-77
2022/01/19 03:11:43;;;;;;;48.00;16.30;;;2.40;99.90;;;;;;5061383;28;20045;-77
2022/01/19 03:14:09;;;;;;;46.67;18.90;;;2.40;99.90;;;;;;5080157;28;20052;-77
2022/01/19 03:16:35;;;;;;;49.40;16.67;;;2.30;99.90;;;;;;5083655;28;20048;-78
2022/01/19 03:19:02;;;;;;;48.88;17.05;;;2.30;99.90;;;;;;5083526;28;20044;-79
2022/01/19 03:21:27;;;;;;;43.35;15.85;;;2.30;99.90;;;;;;5078337;28;20081;-78
2022/01/19 03:23:53;;;;;;;39.67;14.55;;;2.30;99.90;;;;;;5078038;28;20131;-78
2022/01/19 03:26:19;;;;;;;44.40;15.20;;;2.50;99.90;;;;;;5096977;28;20511;-78
2022/01/19 03:28:45;;;;;;;43.67;16.40;;;2.20;99.90;;;;;;5092136;28;20056;-78
2022/01/19 03:31:10;;;;;;;42.50;14.25;;;2.30;99.90;;;;;;5061674;28;20045;-78
2022/01/19 03:33:36;;;;;;;43.72;15.73;;;2.00;99.90;;;;;;5079180;28;20115;-78
2022/01/19 03:36:02;;;;;;;45.60;15.43;;;2.10;99.90;;;;;;5077592;28;20045;-78
2022/01/19 03:38:28;;;;;;;42.35;16.35;;;1.90;99.90;;;;;;5078551;28;20086;-77
2022/01/19 03:40:54;;;;;;;61.15;17.70;;;1.80;99.90;;;;;;5079111;28;20072;-76
2022/01/19 03:43:19;;;;;;;149.43;26.73;;;1.80;99.90;;;;;;5085696;28;20056;-78
2022/01/19 03:45:52;;;;;;;176.43;27.65;;;1.90;99.90;;;;;;5086286;28;20048;-78
2022/01/19 03:50:46;;;;;;;174.65;25.50;;;2.10;99.90;;;;;;5079215;28;20658;-77
2022/01/19 03:53:12;;;;;;;181.73;26.70;;;2.10;99.90;;;;;;5077266;28;20056;-78
2022/01/19 03:55:38;;;;;;;169.13;25.67;;;2.20;99.90;;;;;;5061661;28;20050;-76
2022/01/19 03:58:04;;;;;;;139.88;23.55;;;2.10;99.90;;;;;;5077140;28;20055;-75
2022/01/19 04:00:34;;;;;;;173.25;25.52;;;2.10;99.90;;;;;;5077654;28;20048;-77
2022/01/19 04:03:00;;;;;;;94.80;21.35;;;2.20;99.90;;;;;;5094111;28;20121;-76
2022/01/19 04:05:40;;;;;;;131.77;26.85;;;2.30;99.90;;;;;;5080495;28;20060;-76
2022/01/19 04:08:06;;;;;;;88.13;22.35;;;2.20;99.90;;;;;;5080907;28;20039;-76
2022/01/19 04:10:32;;;;;;;87.45;18.58;;;2.50;99.90;;;;;;5081520;28;20102;-76
2022/01/19 04:13:10;;;;;;;80.18;18.88;;;2.50;99.90;;;;;;5077382;28;20455;-77
2022/01/19 04:15:36;;;;;;;119.78;22.23;;;2.20;99.90;;;;;;5077408;28;20094;-77
2022/01/19 04:18:05;;;;;;;63.60;17.27;;;2.20;99.90;;;;;;5079441;28;20040;-77
2022/01/19 04:20:40;;;;;;;78.18;21.48;;;2.20;99.90;;;;;;5088348;28;20073;-77
2022/01/19 04:23:05;;;;;;;62.90;18.35;;;2.10;99.90;;;;;;5076960;28;20044;-76
2022/01/19 04:25:31;;;;;;;65.15;17.90;;;2.10;99.90;;;;;;5080177;28;20051;-76
2022/01/19 04:27:57;;;;;;;79.50;19.95;;;2.10;99.90;;;;;;5080626;28;20045;-77
2022/01/19 04:30:26;;;;;;;74.97;19.13;;;2.10;99.90;;;;;;5082441;28;20055;-77
2022/01/19 04:33:04;;;;;;;58.30;17.40;;;2.10;99.90;;;;;;5083168;28;20099;-77
2022/01/19 04:35:43;;;;;;;78.57;18.20;;;2.00;99.90;;;;;;5078039;28;20036;-77
2022/01/19 04:49:15;;;;;;;56.70;14.40;;;1.70;99.90;;;;;;5082180;28;20048;-77
2022/01/19 05:02:58;;;;;;;79.65;17.48;;;1.70;99.90;;;;;;5077878;28;20063;-77
2022/01/19 05:05:22;;;;;;;95.50;18.25;;;2.90;99.90;;;;;;5078178;28;20058;-77
2022/01/19 05:15:42;;;;;;;139.27;21.13;;;1.50;99.90;;;;;;5096443;28;20079;-76
2022/01/19 05:18:08;;;;;;;135.13;22.45;;;1.50;99.90;;;;;;5081313;28;20059;-77
2022/01/19 05:20:34;;;;;;;136.75;22.52;;;1.40;99.90;;;;;;5075785;28;20052;-77
2022/01/19 05:23:00;;;;;;;163.40;20.67;;;1.40;99.90;;;;;;5059516;28;20053;-77
2022/01/19 05:25:25;;;;;;;131.48;21.33;;;1.60;99.90;;;;;;5078475;28;20055;-77
2022/01/19 05:27:51;;;;;;;125.82;21.73;;;1.30;99.90;;;;;;5085675;28;20064;-77
2022/01/19 05:30:18;;;;;;;126.65;20.77;;;1.30;99.90;;;;;;5076780;28;20044;-77
2022/01/19 05:32:45;;;;;;;110.28;19.80;;;1.30;99.90;;;;;;5076281;28;20048;-77
2022/01/19 05:35:11;;;;;;;103.65;20.23;;;1.20;99.90;;;;;;5060677;28;20100;-77
2022/01/19 05:37:36;;;;;;;94.25;20.73;;;1.20;99.90;;;;;;5076561;28;20037;-77
2022/01/19 05:40:09;;;;;;;92.35;20.65;;;1.20;99.90;;;;;;5076403;28;20066;-76
2022/01/19 05:42:35;;;;;;;112.40;23.63;;;1.20;99.90;;;;;;5076614;28;20048;-76
2022/01/19 05:45:01;;;;;;;109.35;20.27;;;1.20;99.90;;;;;;5080095;28;20040;-77
2022/01/19 05:47:27;;;;;;;87.60;20.67;;;1.20;99.90;;;;;;5080906;28;20063;-76
2022/01/19 05:49:53;;;;;;;92.13;20.48;;;1.20;99.90;;;;;;5095075;28;20043;-76
2022/01/19 05:52:19;;;;;;;100.38;22.35;;;1.30;99.90;;;;;;5084280;28;20048;-76
2022/01/19 05:54:46;;;;;;;62.88;20.25;;;1.30;99.90;;;;;;5090918;28;20043;-76
2022/01/19 05:57:12;;;;;;;80.40;21.95;;;1.30;99.90;;;;;;5098905;27;20048;-76
2022/01/19 05:59:38;;;;;;;63.25;20.67;;;1.30;99.90;;;;;;5080750;28;20070;-75
2022/01/19 06:02:04;;;;;;;54.60;19.95;;;1.40;99.90;;;;;;5082163;28;20048;-76
2022/01/19 06:04:29;;;;;;;48.55;18.45;;;1.70;99.90;;;;;;5080477;28;20056;-76
2022/01/19 06:06:56;;;;;;;54.80;19.05;;;1.40;99.90;;;;;;5079848;28;20052;-76
2022/01/19 06:09:37;;;;;;;50.70;19.77;;;1.40;99.90;;;;;;5081678;28;20080;-76
2022/01/19 06:12:08;;;;;;;62.00;20.77;;;1.40;99.90;;;;;;5080085;28;20048;-76
2022/01/19 06:14:35;;;;;;;49.33;18.83;;;1.50;99.90;;;;;;5098236;28;20048;-76
2022/01/19 06:17:02;;;;;;;53.15;20.83;;;1.60;99.90;;;;;;5100538;28;20044;-76
2022/01/19 06:19:28;;;;;;;59.28;22.92;;;1.60;99.90;;;;;;5083835;28;20051;-76
2022/01/19 06:21:54;;;;;;;56.30;20.17;;;1.60;99.90;;;;;;5080013;28;20083;-75
2022/01/19 06:24:20;;;;;;;52.05;20.60;;;1.60;99.90;;;;;;5104923;28;20048;-75
2022/01/19 06:26:46;;;;;;;51.47;18.73;;;1.60;99.90;;;;;;5097739;28;20044;-75
2022/01/19 06:29:11;;;;;;;60.10;21.92;;;1.60;99.90;;;;;;5079447;28;20048;-74
2022/01/19 06:31:37;;;;;;;59.95;21.92;;;1.90;99.90;;;;;;5079284;28;20047;-76
2022/01/19 06:34:03;;;;;;;58.80;20.90;;;1.60;99.90;;;;;;5088309;28;20040;-75
2022/01/19 06:36:29;;;;;;;53.63;20.83;;;1.60;99.90;;;;;;5062391;28;20041;-75
2022/01/19 06:38:54;;;;;;;63.88;22.50;;;1.70;99.90;;;;;;5079832;28;20040;-76
2022/01/19 06:41:20;;;;;;;52.25;21.40;;;1.80;99.90;;;;;;5080137;28;20100;-75
2022/01/19 06:43:46;;;;;;;58.13;22.10;;;2.00;99.90;;;;;;5079304;28;20044;-76
2022/01/19 06:46:12;;;;;;;64.22;23.38;;;1.70;99.90;;;;;;5079187;28;20051;-76
2022/01/19 06:48:38;;;;;;;58.60;21.55;;;1.70;99.90;;;;;;5097322;28;20051;-75
2022/01/19 06:51:03;;;;;;;63.58;23.45;;;1.90;99.90;;;;;;5081670;28;20062;-73
2022/01/19 06:53:29;;;;;;;64.03;24.65;;;1.80;99.90;;;;;;5095456;28;20561;-74
2022/01/19 06:55:57;;;;;;;59.95;24.35;;;1.80;99.90;;;;;;5098897;28;20143;-74
2022/01/19 06:58:24;;;;;;;48.53;20.08;;;1.90;99.90;;;;;;5080096;28;20069;-74
2022/01/19 07:00:49;;;;;;;57.05;23.15;;;1.90;99.90;;;;;;5079378;28;20377;-75
2022/01/19 07:03:15;;;;;;;51.50;22.20;;;1.90;99.90;;;;;;5062002;28;20051;-76
2022/01/19 07:05:41;;;;;;;47.55;19.30;;;2.30;99.90;;;;;;5098314;28;20040;-75
2022/01/19 07:08:07;;;;;;;48.38;21.15;;;2.10;99.90;;;;;;5088536;28;20128;-77
2022/01/19 07:10:33;;;;;;;47.88;19.98;;;2.00;99.90;;;;;;5079390;28;20112;-75
2022/01/19 07:12:59;;;;;;;51.92;22.13;;;2.00;99.90;;;;;;5080361;28;20074;-76
2022/01/19 07:15:25;;;;;;;50.33;22.75;;;2.00;99.90;;;;;;5078481;28;20047;-74
2022/01/19 07:17:51;;;;;;;42.92;19.35;;;2.00;99.90;;;;;;5080521;28;20530;-75
2022/01/19 07:20:16;;;;;;;46.60;21.05;;;3.10;99.90;;;;;;5078208;28;20048;-74
2022/01/19 07:22:42;;;;;;;45.20;20.55;;;2.30;99.90;;;;;;5088686;28;20507;-76
2022/01/19 07:25:09;;;;;;;44.22;21.15;;;2.00;99.90;;;;;;5089233;28;20045;-76
2022/01/19 07:27:34;;;;;;;44.33;20.40;;;2.10;99.90;;;;;;5077837;28;20108;-77
2022/01/19 07:30:00;;;;;;;43.95;21.52;;;2.40;99.90;;;;;;5078879;28;20076;-77
2022/01/19 07:32:30;;;;;;;47.38;22.10;;;2.20;99.90;;;;;;5084912;28;20514;-77
2022/01/19 07:34:56;;;;;;;44.30;22.25;;;2.20;99.90;;;;;;5092384;28;20099;-78
2022/01/19 07:37:22;;;;;;;43.15;20.83;;;2.60;99.90;;;;;;5085152;28;20101;-79
2022/01/19 07:39:48;;;;;;;45.15;21.63;;;2.20;99.90;;;;;;5079772;28;20134;-80
2022/01/19 07:42:14;;;;;;;45.08;21.73;;;2.30;99.90;;;;;;5079192;28;20500;-78
2022/01/19 07:44:40;;;;;;;39.53;21.20;;;2.50;99.90;;;;;;5078329;28;20053;-78
2022/01/19 07:47:06;;;;;;;45.45;23.35;;;2.30;99.90;;;;;;5091277;28;20051;-78
2022/01/19 07:49:32;;;;;;;45.67;22.63;;;2.70;99.90;;;;;;5091063;28;20052;-75
2022/01/19 07:51:58;;;;;;;41.33;21.02;;;2.40;99.90;;;;;;5078663;28;20657;-79
2022/01/19 07:54:24;;;;;;;48.13;23.17;;;2.40;99.90;;;;;;5080958;28;20040;-75
2022/01/19 07:56:50;;;;;;;46.58;23.40;;;2.70;99.90;;;;;;5088085;28;20131;-77
2022/01/19 07:59:17;;;;;;;47.15;24.00;;;2.40;99.90;;;;;;5061256;28;20101;-75
2022/01/19 08:01:43;;;;;;;47.90;22.55;;;2.40;99.90;;;;;;5114010;28;20040;-75
2022/01/19 08:04:09;;;;;;;42.35;21.83;;;2.40;99.90;;;;;;5098465;28;20044;-76
2022/01/19 08:06:36;;;;;;;45.25;23.15;;;3.50;99.90;;;;;;5082854;28;20570;-75
2022/01/19 08:09:03;;;;;;;46.03;24.02;;;2.50;99.90;;;;;;5079659;28;20075;-78
2022/01/19 08:11:29;;;;;;;43.88;23.63;;;2.50;99.90;;;;;;5078598;28;20057;-76
2022/01/19 08:13:54;;;;;;;41.95;22.58;;;2.50;99.90;;;;;;5043763;28;20059;-77
2022/01/19 08:16:21;;;;;;;50.63;23.58;;;2.70;99.90;;;;;;5076348;28;20658;-76
2022/01/19 08:18:47;;;;;;;48.38;24.27;;;2.60;99.90;;;;;;5082433;28;20040;-73
2022/01/19 08:21:13;;;;;;;46.00;22.92;;;2.70;99.90;;;;;;5077747;28;20059;-73
2022/01/19 08:23:39;;;;;;;44.72;23.35;;;2.60;99.90;;;;;;5087177;28;20047;-72
2022/01/19 08:26:05;;;;;;;48.80;25.40;;;2.60;99.90;;;;;;5088555;28;20111;-72
2022/01/19 08:28:30;;;;;;;44.47;23.70;;;2.60;99.90;;;;;;5083470;28;20104;-72
2022/01/19 08:30:56;;;;;;;45.38;24.42;;;2.60;99.90;;;;;;5084471;28;20052;-74
2022/01/19 08:33:22;;;;;;;46.42;24.33;;;2.70;99.90;;;;;;5079707;28;20044;-73
2022/01/19 08:35:48;;;;;;;48.75;26.05;;;2.70;99.90;;;;;;5073260;28;20040;-73
2022/01/19 08:38:14;;;;;;;48.72;24.67;;;2.70;99.90;;;;;;5098754;28;20051;-73
2022/01/19 08:40:40;;;;;;;45.58;23.75;;;2.70;99.90;;;;;;5078730;28;20079;-72
2022/01/19 08:43:06;;;;;;;46.80;25.80;;;2.80;99.90;;;;;;5078845;28;20044;-73
2022/01/19 08:45:32;;;;;;;40.78;20.48;;;2.80;99.90;;;;;;5096556;28;20483;-73
2022/01/19 08:47:58;;;;;;;49.55;25.17;;;3.00;99.90;;;;;;5097574;28;20044;-72
2022/01/19 08:50:24;;;;;;;49.25;26.17;;;2.80;99.90;;;;;;5079772;28;20040;-72
2022/01/19 08:52:50;;;;;;;51.05;23.23;;;2.80;99.90;;;;;;5082048;28;20137;-73
2022/01/19 08:55:16;;;;;;;48.38;23.63;;;2.80;99.90;;;;;;5090636;28;20131;-72
2022/01/19 08:57:44;;;;;;;46.92;24.40;;;2.80;99.90;;;;;;5095496;28;20076;-74
2022/01/19 09:00:12;;;;;;;44.28;23.13;;;2.80;99.90;;;;;;5077245;28;20063;-72
2022/01/19 09:02:38;;;;;;;50.92;24.83;;;2.90;99.90;;;;;;5075643;28;20058;-75
2022/01/19 09:05:05;;;;;;;50.25;25.90;;;3.00;99.90;;;;;;5077429;28;20040;-73
2022/01/19 09:07:31;;;;;;;48.17;25.98;;;2.90;99.90;;;;;;5077713;28;20040;-75
2022/01/19 09:09:57;;;;;;;53.40;27.35;;;2.90;99.90;;;;;;5076187;28;20048;-74
2022/01/19 09:12:23;;;;;;;51.55;27.55;;;2.90;99.90;;;;;;5086822;28;20071;-75
2022/01/19 09:14:49;;;;;;;54.85;26.70;;;3.00;99.90;;;;;;5077595;28;20538;-73
2022/01/19 09:17:15;;;;;;;55.10;24.80;;;3.00;99.90;;;;;;5081593;28;20133;-74
2022/01/19 09:19:41;;;;;;;50.33;26.00;;;3.00;99.90;;;;;;5083667;28;20094;-77
2022/01/19 09:22:09;;;;;;;59.65;26.90;;;3.00;99.90;;;;;;5081377;28;20033;-73
2022/01/19 09:24:36;;;;;;;52.95;26.08;;;3.00;99.90;;;;;;5089688;28;20048;-73
2022/01/19 09:27:03;;;;;;;52.83;25.67;;;2.90;99.90;;;;;;5100805;28;20708;-77
2022/01/19 09:29:28;;;;;;;51.20;24.50;;;3.00;99.90;;;;;;5096417;28;20098;-74
2022/01/19 09:31:56;;;;;;;50.10;24.80;;;3.00;99.90;;;;;;5098474;28;20056;-76
2022/01/19 09:34:22;;;;;;;45.65;21.52;;;3.10;99.90;;;;;;5092308;28;20069;-75
2022/01/19 09:36:48;;;;;;;50.53;24.77;;;3.00;99.90;;;;;;5085808;28;20035;-74
2022/01/19 09:39:25;;;;;;;57.67;28.17;;;3.00;99.90;;;;;;5086777;28;20123;-73
2022/01/19 09:41:52;;;;;;;48.28;25.73;;;3.10;99.90;;;;;;5081614;28;20151;-75
2022/01/19 09:44:24;;;;;;;50.42;26.63;;;3.10;99.90;;;;;;5082956;28;20041;-72
2022/01/19 09:46:51;;;;;;;57.05;28.95;;;3.10;99.90;;;;;;5062436;28;20090;-75
2022/01/19 09:49:19;;;;;;;52.38;25.90;;;3.10;99.90;;;;;;5078386;28;20041;-74
2022/01/19 09:51:46;;;;;;;59.35;27.17;;;3.30;99.90;;;;;;5082167;28;20045;-73
2022/01/19 09:54:24;;;;;;;48.90;25.85;;;3.10;99.90;;;;;;5080192;28;20385;-73
2022/01/19 09:56:50;;;;;;;53.38;25.88;;;3.20;99.90;;;;;;5099347;28;20059;-73
2022/01/19 09:59:16;;;;;;;50.28;24.33;;;3.10;99.90;;;;;;5081411;28;20094;-75
2022/01/19 10:02:03;;;;;;;51.35;25.70;;;3.10;99.90;;;;;;5064344;28;20454;-73
2022/01/19 10:04:34;;;;;;;50.53;24.92;;;3.10;99.90;;;;;;5097267;28;20048;-76
2022/01/19 10:07:20;;;;;;;55.50;26.08;;;3.10;99.90;;;;;;5083495;28;20040;-75
2022/01/19 10:09:57;;;;;;;62.55;29.00;;;3.20;99.90;;;;;;5096643;28;20059;-75
2022/01/19 10:18:18;;;;;;;66.85;30.50;;;3.30;99.90;;;;;;5096163;28;20049;-74
2022/01/19 10:20:46;;;;;;;62.47;26.73;;;3.30;99.90;;;;;;5106264;28;20039;-77
2022/01/19 10:23:39;;;;;;;62.80;29.17;;;3.40;99.90;;;;;;5087780;28;20297;-76
2022/01/19 10:26:11;;;;;;;67.88;27.77;;;3.40;99.90;;;;;;5084143;28;20051;-73
2022/01/19 10:28:59;;;;;;;62.60;28.48;;;3.40;99.90;;;;;;5090955;28;20048;-75
2022/01/19 10:31:26;;;;;;;65.15;28.33;;;3.40;99.90;;;;;;5090160;28;20531;-74
2022/01/19 10:34:20;;;;;;;57.85;29.77;;;3.40;99.90;;;;;;5084219;28;20063;-75
2022/01/19 10:37:02;;;;;;;72.72;30.42;;;3.40;99.90;;;;;;5082399;28;20048;-72
2022/01/19 10:39:46;;;;;;;75.05;34.60;;;3.40;99.90;;;;;;5081747;28;20044;-75
2022/01/19 10:42:16;;;;;;;67.28;32.60;;;3.60;99.90;;;;;;5080480;28;20084;-72
2022/01/19 10:44:48;;;;;;;68.43;28.48;;;3.40;99.90;;;;;;5089396;28;20059;-75
2022/01/19 10:47:17;;;;;;;80.05;31.90;;;3.50;99.90;;;;;;5089539;28;20086;-77
2022/01/19 10:49:50;;;;;;;74.90;34.45;;;3.50;99.90;;;;;;5065158;28;20091;-74
2022/01/19 10:52:40;;;;;;;72.57;30.40;;;3.60;99.90;;;;;;5083842;28;20040;-75
2022/01/19 10:55:13;;;;;;;77.38;36.15;;;3.50;99.90;;;;;;5105839;28;20107;-80
2022/01/19 10:57:42;;;;;;;81.38;36.10;;;3.90;99.90;;;;;;5079649;28;20032;-75
2022/01/19 11:00:30;;;;;;;80.88;33.33;;;3.60;99.90;;;;;;5080976;28;20044;-76
2022/01/19 11:03:12;;;;;;;73.07;30.90;;;3.60;99.90;;;;;;5097449;28;20071;-74
2022/01/19 11:05:43;;;;;;;78.07;33.28;;;3.70;99.90;;;;;;5082251;28;20047;-74
2022/01/19 11:08:09;;;;;;;76.18;31.73;;;3.60;99.90;;;;;;5101183;28;20096;-76
2022/01/19 11:10:36;;;;;;;75.00;33.67;;;3.80;99.90;;;;;;5089079;28;20070;-74
2022/01/19 11:13:02;;;;;;;74.80;34.33;;;3.60;99.90;;;;;;5088654;28;20080;-77
2022/01/19 11:15:28;;;;;;;83.20;36.22;;;3.70;99.90;;;;;;5093581;28;20507;-73
2022/01/19 11:17:53;;;;;;;89.30;35.15;;;3.60;99.90;;;;;;5092432;28;20068;-73
2022/01/19 11:20:24;;;;;;;84.25;35.17;;;3.60;99.90;;;;;;5079603;28;20078;-76
2022/01/19 11:22:57;;;;;;;84.13;34.83;;;3.70;99.90;;;;;;5086377;28;20044;-74
2022/01/19 11:25:41;;;;;;;79.45;33.78;;;3.90;99.90;;;;;;5091808;28;20093;-75
2022/01/19 11:28:07;;;;;;;88.03;35.40;;;3.70;99.90;;;;;;5085533;28;20054;-74
2022/01/19 11:30:35;;;;;;;83.75;32.03;;;3.70;99.90;;;;;;5081990;28;20048;-75
2022/01/19 11:33:25;;;;;;;85.80;33.67;;;3.70;99.90;;;;;;5082952;28;20593;-76
2022/01/19 11:35:57;;;;;;;71.93;30.15;;;3.90;99.90;;;;;;5079129;28;20045;-74
2022/01/19 11:38:46;;;;;;;80.55;34.72;;;4.20;99.90;;;;;;5080507;28;20079;-75
2022/01/19 11:41:15;;;;;;;82.68;34.35;;;3.90;99.90;;;;;;5099028;28;20070;-72
2022/01/19 11:43:57;;;;;;;95.35;36.97;;;3.70;99.90;;;;;;5099478;28;20157;-75
2022/01/19 11:46:39;;;;;;;97.18;35.40;;;3.70;99.90;;;;;;5080112;28;20047;-74
2022/01/19 11:49:06;;;;;;;100.68;38.05;;;3.80;99.90;;;;;;5085225;28;20048;-76
2022/01/19 11:51:39;;;;;;;90.15;36.13;;;3.80;99.90;;;;;;5098465;28;20056;-75
2022/01/19 11:54:06;;;;;;;84.45;37.78;;;3.80;99.90;;;;;;5078390;28;20048;-74
2022/01/19 11:56:58;;;;;;;107.57;42.33;;;3.80;99.90;;;;;;5093630;28;20443;-74
2022/01/19 11:59:46;;;;;;;90.57;35.30;;;3.70;99.90;;;;;;5090595;28;20055;-72
2022/01/19 12:02:32;;;;;;;110.95;42.00;;;3.70;99.90;;;;;;5092167;28;20507;-72
2022/01/19 12:05:18;;;;;;;89.88;34.08;;;3.70;99.90;;;;;;5079611;28;20392;-78
2022/01/19 12:07:52;;;;;;;92.65;35.90;;;3.60;99.90;;;;;;5095072;28;20415;-76
2022/01/19 12:10:20;;;;;;;93.75;37.72;;;3.60;99.90;;;;;;5063418;28;20071;-71
2022/01/19 12:13:25;;;;;;;94.70;37.35;;;3.60;99.90;;;;;;5082087;28;20098;-74
2022/01/19 12:15:57;;;;;;;90.60;34.45;;;3.60;99.90;;;;;;5090684;28;20104;-74
2022/01/19 12:18:53;;;;;;;96.90;39.28;;;3.60;99.90;;;;;;5081680;28;20472;-72
2022/01/19 12:21:31;;;;;;;92.75;37.83;;;3.60;99.90;;;;;;5086317;28;20055;-71
2022/01/19 12:24:19;;;;;;;92.13;36.65;;;3.60;99.90;;;;;;5086655;28;20043;-72
2022/01/19 12:26:49;;;;;;;98.28;38.17;;;3.60;99.90;;;;;;5077430;28;20052;-73
2022/01/19 12:29:33;;;;;;;107.38;37.15;;;3.70;99.90;;;;;;5084981;28;20094;-74
2022/01/19 12:32:11;;;;;;;92.75;39.90;;;3.70;99.90;;;;;;5094402;28;20538;-76
2022/01/19 12:34:51;;;;;;;88.30;38.85;;;3.70;99.90;;;;;;5086886;28;20505;-74
2022/01/19 12:37:32;;;;;;;89.28;36.13;;;3.70;99.90;;;;;;5083905;28;20060;-77
2022/01/19 12:40:05;;;;;;;94.25;36.80;;;3.70;99.90;;;;;;5076778;28;20044;-71
2022/01/19 12:42:49;;;;;;;90.93;36.20;;;3.70;99.90;;;;;;5078756;28;20040;-73
2022/01/19 12:45:32;;;;;;;96.30;36.95;;;3.70;99.90;;;;;;5075718;28;20170;-73
2022/01/19 12:47:59;;;;;;;87.32;33.95;;;3.70;99.90;;;;;;5082010;28;20108;-74
2022/01/19 12:50:28;;;;;;;80.70;32.40;;;3.80;99.90;;;;;;5079120;28;20048;-76
2022/01/19 12:52:57;;;;;;;94.05;36.55;;;3.80;99.90;;;;;;5076114;28;20044;-76
2022/01/19 12:55:26;;;;;;;90.28;37.20;;;3.80;99.90;;;;;;5080057;28;20047;-73
2022/01/19 12:57:54;;;;;;;93.13;36.72;;;3.90;99.90;;;;;;5090084;28;20059;-76
2022/01/19 13:00:26;;;;;;;90.28;37.03;;;3.90;99.90;;;;;;5078556;28;20056;-77
2022/01/19 13:02:52;;;;;;;88.60;37.83;;;3.90;99.90;;;;;;5089231;28;20144;-76
2022/01/19 13:05:20;;;;;;;86.05;37.10;;;4.00;99.90;;;;;;5085480;28;20044;-78
2022/01/19 13:07:57;;;;;;;90.32;38.75;;;3.90;99.90;;;;;;5076991;28;20064;-72
2022/01/19 13:15:43;;;;;;;88.93;38.08;;;3.90;99.90;;;;;;5077422;28;20056;-73
2022/01/19 13:18:10;;;;;;;100.80;39.47;;;3.90;99.90;;;;;;5089959;28;20052;-72
2022/01/19 13:20:36;;;;;;;96.65;39.88;;;3.90;99.90;;;;;;5097617;28;20048;-74
2022/01/19 13:23:04;;;;;;;94.45;39.00;;;4.20;99.90;;;;;;5084150;28;20135;-76
2022/01/19 13:25:33;;;;;;;91.82;38.33;;;4.30;99.90;;;;;;5076762;28;20049;-78
2022/01/19 13:28:01;;;;;;;82.47;33.75;;;3.90;99.90;;;;;;5077215;28;20052;-77
2022/01/19 13:30:31;;;;;;;93.05;38.15;;;4.20;99.90;;;;;;5081812;28;20048;-76
2022/01/19 13:32:57;;;;;;;96.65;40.63;;;4.10;99.90;;;;;;5067759;28;20059;-76
2022/01/19 13:35:26;;;;;;;90.72;36.97;;;4.10;99.90;;;;;;5077728;28;20042;-74
2022/01/19 13:37:58;;;;;;;86.55;36.20;;;4.00;99.90;;;;;;5076974;28;20041;-80
2022/01/19 13:40:28;;;;;;;84.63;34.60;;;3.90;99.90;;;;;;5087826;28;20044;-75
2022/01/19 13:43:10;;;;;;;90.05;34.67;;;4.20;99.90;;;;;;5098119;28;20044;-78
2022/01/19 13:50:44;;;;;;;87.75;33.50;;;4.10;99.90;;;;;;5095507;28;20055;-80
2022/01/19 13:53:11;;;;;;;79.45;34.05;;;4.10;99.90;;;;;;5086574;28;20078;-76
2022/01/19 13:55:37;;;;;;;87.97;36.55;;;4.10;99.90;;;;;;5094882;28;20113;-79
2022/01/19 13:58:13;;;;;;;71.75;33.50;;;4.10;99.90;;;;;;5087856;28;20120;-77
2022/01/19 14:00:57;;;;;;;81.30;33.25;;;4.10;99.90;;;;;;5096329;28;20044;-74
2022/01/19 14:03:42;;;;;;;78.57;33.85;;;4.10;99.90;;;;;;5080620;28;20384;-81
2022/01/19 14:06:38;;;;;;;74.40;30.83;;;4.20;99.90;;;;;;5086778;28;20400;-76
2022/01/19 14:09:11;;;;;;;66.80;32.38;;;4.20;99.90;;;;;;5081187;28;20112;-80
2022/01/19 14:11:39;;;;;;;80.75;34.47;;;4.20;99.90;;;;;;5080537;28;20397;-73
2022/01/19 14:14:12;;;;;;;72.68;32.38;;;4.20;99.90;;;;;;5061243;28;20059;-73
2022/01/19 14:16:45;;;;;;;68.20;31.73;;;4.20;99.90;;;;;;5116681;28;20071;-82
2022/01/19 14:19:21;;;;;;;71.90;31.55;;;4.30;99.90;;;;;;5089453;28;20055;-72
2022/01/19 14:22:04;;;;;;;61.80;29.42;;;4.20;99.90;;;;;;5083799;28;20048;-82